Time;durP1;ratioP1;P1;durP2;ratioP2;P2;SDS_P1;SDS_P2;PMS_P1;PMS_P2;Temp;Humidity;BMP_temperature;BMP_pressure;BME280_temperature;BME280_humidity;BME280_pressure;Samples;Min_cycle;Max_cycle;Signal;HPM_P1;HPM_P2
2021/10/28 00:13:30;;;;;;;4.85;4.47;;;11.40;74.20;;;;;;4973522;28;20463;-83
2021/10/28 00:15:58;;;;;;;5.80;5.25;;;11.40;74.20;;;;;;4969605;28;20034;-83
2021/10/28 00:21:19;;;;;;;6.70;6.18;;;11.40;74.30;;;;;;4956007;28;20039;-83
2021/10/28 00:23:51;;;;;;;5.13;4.72;;;11.40;74.30;;;;;;4971994;28;20498;-83
2021/10/28 00:26:18;;;;;;;;;;;11.30;74.20;;;;;;4987363;28;20050;-83
2021/10/28 00:28:44;;;;;;;5.97;5.55;;;11.30;74.30;;;;;;4972071;28;19910;-83
2021/10/28 00:31:11;;;;;;;4.65;4.35;;;11.30;74.30;;;;;;4970857;28;20035;-83
2021/10/28 00:33:37;;;;;;;4.53;4.32;;;11.20;74.30;;;;;;4970697;28;20135;-83
2021/10/28 00:36:05;;;;;;;6.07;5.53;;;11.20;74.30;;;;;;4971297;28;20031;-83
2021/10/28 00:38:33;;;;;;;5.00;4.60;;;11.20;74.30;;;;;;4971040;28;20026;-83
2021/10/28 00:41:01;;;;;;;5.28;4.88;;;11.20;74.40;;;;;;4987926;28;20030;-83
2021/10/28 00:43:27;;;;;;;4.03;3.83;;;11.20;74.40;;;;;;4968223;28;20035;-83
2021/10/28 00:45:53;;;;;;;5.15;4.72;;;11.20;74.40;;;;;;4961635;28;20042;-83
2021/10/28 00:48:19;;;;;;;5.68;5.28;;;11.10;74.40;;;;;;4972389;28;20026;-83
2021/10/28 00:50:50;;;;;;;7.13;4.95;;;11.20;74.40;;;;;;4968525;28;20054;-83
2021/10/28 00:53:16;;;;;;;4.82;4.53;;;11.10;74.40;;;;;;4972322;28;20034;-83
2021/10/28 00:55:42;;;;;;;4.57;4.32;;;11.10;74.50;;;;;;4971351;28;20041;-83
2021/10/28 00:58:09;;;;;;;5.40;5.00;;;11.00;74.50;;;;;;4975008;28;20035;-83
2021/10/28 01:00:35;;;;;;;5.88;5.43;;;11.00;74.60;;;;;;4970615;28;20027;-83
2021/10/28 01:03:02;;;;;;;4.97;4.68;;;11.00;74.60;;;;;;4969939;28;20045;-83
2021/10/28 01:05:28;;;;;;;5.10;4.75;;;11.00;74.70;;;;;;4972259;28;20510;-83
2021/10/28 01:07:54;;;;;;;4.00;3.80;;;11.00;74.70;;;;;;4973506;28;20038;-83
2021/10/28 01:10:20;;;;;;;4.38;4.00;;;11.00;74.70;;;;;;4970952;28;20030;-83
2021/10/28 01:12:46;;;;;;;4.95;4.50;;;11.00;74.60;;;;;;4976872;28;20050;-83
2021/10/28 01:15:14;;;;;;;4.57;4.32;;;11.00;74.60;;;;;;4970700;28;20027;-83
2021/10/28 01:17:40;;;;;;;5.03;4.63;;;11.00;74.60;;;;;;4969260;28;20069;-83
2021/10/28 01:20:08;;;;;;;5.00;4.70;;;11.10;74.60;;;;;;4973004;28;20035;-84
2021/10/28 01:22:34;;;;;;;5.00;4.70;;;11.10;74.60;;;;;;4971469;28;20034;-83
2021/10/28 01:25:00;;;;;;;4.22;4.03;;;11.00;74.50;;;;;;4972688;28;20050;-83
2021/10/28 01:27:26;;;;;;;4.63;4.28;;;11.00;74.60;;;;;;4971179;28;20031;-83
2021/10/28 01:29:53;;;;;;;4.22;4.03;;;11.00;74.60;;;;;;4970160;28;20019;-83
2021/10/28 01:32:19;;;;;;;4.88;4.43;;;10.90;74.70;;;;;;4971758;28;20050;-83
2021/10/28 01:34:45;;;;;;;4.82;4.53;;;10.90;74.80;;;;;;4969654;28;20043;-83
2021/10/28 01:37:12;;;;;;;5.10;4.70;;;10.90;74.80;;;;;;4970216;28;20023;-83
2021/10/28 01:39:39;;;;;;;4.85;4.47;;;10.90;74.90;;;;;;4967631;28;20027;-84
2021/10/28 01:42:06;;;;;;;7.05;4.63;;;10.90;74.90;;;;;;4970602;28;20348;-83
2021/10/28 01:44:33;;;;;;;5.70;3.95;;;10.90;74.80;;;;;;4970281;28;20047;-83
2021/10/28 01:47:00;;;;;;;6.38;5.18;;;10.90;74.70;;;;;;4972307;28;20047;-83
2021/10/28 01:49:26;;;;;;;4.30;4.00;;;10.90;74.70;;;;;;4972116;28;20027;-83
2021/10/28 01:51:54;;;;;;;4.18;3.97;;;10.90;74.70;;;;;;4970322;28;20388;-83
2021/10/28 01:54:21;;;;;;;4.60;4.40;;;10.90;74.80;;;;;;4969122;28;20022;-84
2021/10/28 01:56:47;;;;;;;4.43;4.13;;;10.90;74.80;;;;;;4971941;28;20026;-83
2021/10/28 01:59:14;;;;;;;4.25;4.00;;;10.80;74.70;;;;;;4984275;28;20035;-83
2021/10/28 02:01:40;;;;;;;4.78;4.32;;;10.80;74.80;;;;;;4968335;28;20050;-83
2021/10/28 02:04:06;;;;;;;4.07;3.88;;;10.80;75.00;;;;;;4967803;28;20022;-83
2021/10/28 02:06:32;;;;;;;4.00;3.80;;;10.70;75.00;;;;;;4965220;28;20046;-83
2021/10/28 02:08:59;;;;;;;4.78;4.47;;;10.70;75.00;;;;;;4966490;28;20049;-83
2021/10/28 02:11:26;;;;;;;4.72;4.40;;;10.70;75.00;;;;;;4969946;28;20103;-83
2021/10/28 02:13:57;;;;;;;4.05;3.85;;;10.70;75.00;;;;;;4967710;28;20042;-83
2021/10/28 02:16:30;;;;;;;;;;;10.70;75.10;;;;;;4968661;28;20046;-83
2021/10/28 02:18:56;;;;;;;5.50;4.25;;;10.70;75.10;;;;;;4968383;28;20026;-83
2021/10/28 02:21:22;;;;;;;4.50;4.20;;;10.60;74.90;;;;;;4968109;28;20031;-83
2021/10/28 02:23:48;;;;;;;4.10;3.90;;;10.60;75.00;;;;;;4966128;28;20377;-83
2021/10/28 02:26:14;;;;;;;3.85;3.65;;;10.50;75.00;;;;;;4969681;28;20391;-83
2021/10/28 02:28:41;;;;;;;9.32;5.43;;;10.50;75.10;;;;;;4969138;28;20042;-83
2021/10/28 02:31:07;;;;;;;4.13;3.92;;;10.50;75.10;;;;;;4966223;28;20038;-83
2021/10/28 02:33:33;;;;;;;4.57;4.25;;;10.50;75.00;;;;;;4971867;28;20539;-83
2021/10/28 02:35:59;;;;;;;4.57;4.28;;;10.50;75.00;;;;;;4974665;28;20031;-83
2021/10/28 02:38:25;;;;;;;5.68;5.05;;;10.50;75.80;;;;;;4975850;28;20034;-83
2021/10/28 02:40:51;;;;;;;4.30;4.00;;;10.50;75.10;;;;;;4974422;28;20035;-83
2021/10/28 02:43:17;;;;;;;4.15;3.92;;;10.50;75.20;;;;;;4972634;28;20050;-83
2021/10/28 02:45:43;;;;;;;4.10;3.83;;;10.40;75.10;;;;;;4973600;28;20042;-83
2021/10/28 02:48:10;;;;;;;4.63;4.32;;;10.40;75.10;;;;;;4963337;28;20043;-83
2021/10/28 02:50:36;;;;;;;4.32;4.13;;;10.40;75.10;;;;;;4974997;28;20388;-83
2021/10/28 02:53:02;;;;;;;4.40;4.20;;;10.40;75.10;;;;;;4974959;28;20042;-83
2021/10/28 02:55:28;;;;;;;4.10;3.90;;;10.40;75.20;;;;;;4956801;28;20400;-83
2021/10/28 02:57:54;;;;;;;5.85;4.18;;;10.40;75.30;;;;;;4972656;28;20026;-83
2021/10/28 03:00:20;;;;;;;5.63;5.10;;;10.40;75.20;;;;;;4972359;28;20073;-83
2021/10/28 03:02:46;;;;;;;5.53;5.13;;;10.40;75.30;;;;;;4971821;28;20031;-83
2021/10/28 03:05:12;;;;;;;4.82;4.13;;;10.40;75.30;;;;;;4974374;28;20058;-83
2021/10/28 03:07:38;;;;;;;4.40;4.10;;;10.40;75.30;;;;;;4956140;28;20403;-83
2021/10/28 03:10:07;;;;;;;4.55;4.32;;;10.40;75.30;;;;;;4972277;28;20042;-83
2021/10/28 03:12:35;;;;;;;5.05;4.60;;;10.40;75.30;;;;;;4964153;28;20500;-83
2021/10/28 03:15:04;;;;;;;4.30;3.97;;;10.40;75.30;;;;;;4971467;28;20043;-83
2021/10/28 03:27:44;;;;;;;3.83;3.63;;;10.40;75.20;;;;;;4917734;29;20056;-84
2021/10/28 03:30:10;;;;;;;4.13;3.92;;;10.30;75.10;;;;;;4915396;29;20039;-83
2021/10/28 03:32:37;;;;;;;4.57;4.30;;;10.30;75.20;;;;;;4899770;29;20043;-84
2021/10/28 03:35:05;;;;;;;4.88;4.35;;;10.30;75.20;;;;;;4931212;29;20032;-84
2021/10/28 03:37:37;;;;;;;3.78;3.58;;;10.30;75.30;;;;;;4919108;29;20040;-84
2021/10/28 03:40:22;;;;;;;3.70;3.50;;;10.20;75.30;;;;;;4915813;29;20031;-83
2021/10/28 04:31:25;;;;;;;4.72;4.43;;;9.90;75.70;;;;;;4972142;28;20042;-87
2021/10/28 04:33:51;;;;;;;4.00;3.80;;;9.90;75.60;;;;;;4967759;28;20053;-88
2021/10/28 04:36:17;;;;;;;4.22;3.90;;;9.90;75.70;;;;;;4956077;28;20124;-88
2021/10/28 04:38:43;;;;;;;4.28;4.07;;;9.90;75.70;;;;;;4972010;28;22814;-88
2021/10/28 04:41:09;;;;;;;3.72;3.53;;;9.90;75.70;;;;;;4972472;28;20042;-88
2021/10/28 04:43:36;;;;;;;4.28;3.97;;;9.90;75.70;;;;;;4970189;28;20046;-87
2021/10/28 04:46:03;;;;;;;3.60;3.40;;;9.90;75.80;;;;;;4967385;28;20547;-87
2021/10/28 04:48:29;;;;;;;3.75;3.55;;;9.90;75.80;;;;;;4972698;28;20043;-88
2021/10/28 04:50:56;;;;;;;3.90;3.70;;;9.90;75.80;;;;;;4968022;28;20054;-88
2021/10/28 04:53:23;;;;;;;4.68;4.38;;;9.80;75.70;;;;;;4974122;28;20035;-87
2021/10/28 04:55:49;;;;;;;3.50;3.35;;;9.80;75.80;;;;;;4971382;28;20030;-88
2021/10/28 04:58:15;;;;;;;4.63;4.32;;;9.80;75.90;;;;;;4974747;28;20026;-87
2021/10/28 05:00:41;;;;;;;3.97;3.78;;;9.80;75.90;;;;;;4968225;28;20034;-87
2021/10/28 05:03:08;;;;;;;4.00;3.80;;;9.70;75.80;;;;;;4968827;28;20036;-87
2021/10/28 05:05:34;;;;;;;3.42;3.30;;;9.70;75.90;;;;;;4970232;28;20061;-87
2021/10/28 05:08:00;;;;;;;3.90;3.70;;;9.60;75.90;;;;;;4973420;28;20038;-86
2021/10/28 05:10:29;;;;;;;3.90;3.70;;;9.60;76.00;;;;;;4977494;28;20038;-87
2021/10/28 05:12:55;;;;;;;4.13;3.85;;;9.50;76.10;;;;;;4977788;28;20468;-87
2021/10/28 05:15:21;;;;;;;3.90;3.70;;;9.50;76.10;;;;;;4970556;28;20050;-87
2021/10/28 05:17:47;;;;;;;4.82;4.40;;;9.40;76.10;;;;;;4968821;28;20499;-87
2021/10/28 05:20:13;;;;;;;4.07;3.88;;;9.50;76.10;;;;;;4970013;28;20039;-87
2021/10/28 05:22:39;;;;;;;4.50;4.30;;;9.40;76.20;;;;;;4977929;28;20034;-88
2021/10/28 05:25:06;;;;;;;4.25;4.00;;;9.40;76.20;;;;;;4981749;28;20043;-88
2021/10/28 05:27:32;;;;;;;3.80;3.50;;;9.40;76.90;;;;;;4963714;28;20058;-88
2021/10/28 05:29:58;;;;;;;4.20;4.00;;;9.40;76.10;;;;;;4971375;28;20047;-87
2021/10/28 05:32:25;;;;;;;3.78;3.55;;;9.40;76.10;;;;;;4969888;28;20031;-87
2021/10/28 05:34:52;;;;;;;4.07;3.88;;;9.40;76.10;;;;;;4972015;28;20120;-88
2021/10/28 05:37:18;;;;;;;8.98;3.67;;;9.50;76.20;;;;;;4968486;28;20526;-87
2021/10/28 05:39:44;;;;;;;4.63;4.35;;;9.50;76.10;;;;;;4970437;28;20035;-88
2021/10/28 05:42:10;;;;;;;4.15;3.85;;;9.50;76.10;;;;;;4967512;28;20038;-87
2021/10/28 05:44:36;;;;;;;3.95;3.75;;;9.50;76.00;;;;;;4969075;28;20049;-86
2021/10/28 05:47:02;;;;;;;4.78;4.40;;;9.50;76.00;;;;;;4977421;28;20415;-88
2021/10/28 05:49:31;;;;;;;4.20;3.90;;;9.60;76.00;;;;;;4968347;28;20039;-88
2021/10/28 05:51:58;;;;;;;4.07;3.88;;;9.60;76.00;;;;;;4969383;28;20046;-87
2021/10/28 05:54:24;;;;;;;3.40;3.30;;;9.60;76.00;;;;;;4971370;28;20027;-87
2021/10/28 05:56:50;;;;;;;4.13;3.70;;;9.60;76.00;;;;;;4969661;28;20043;-84
2021/10/28 05:59:16;;;;;;;4.50;4.10;;;9.50;75.90;;;;;;4971199;28;20050;-88
2021/10/28 06:01:42;;;;;;;3.95;3.70;;;9.50;76.00;;;;;;4965593;28;20054;-83
2021/10/28 06:04:08;;;;;;;4.07;3.88;;;9.50;76.10;;;;;;4970591;28;20030;-86
2021/10/28 06:06:34;;;;;;;3.85;3.65;;;9.60;76.00;;;;;;4968565;28;20065;-86
2021/10/28 06:09:01;;;;;;;3.90;3.67;;;9.50;76.00;;;;;;4971258;28;20403;-88
2021/10/28 06:11:27;;;;;;;4.05;3.85;;;9.50;76.10;;;;;;4968464;28;20472;-86
2021/10/28 06:13:54;;;;;;;4.38;4.18;;;9.50;76.00;;;;;;4971006;28;20034;-86
2021/10/28 06:16:21;;;;;;;4.10;3.90;;;9.50;76.10;;;;;;4969304;28;20440;-84
2021/10/28 06:18:49;;;;;;;3.90;3.70;;;9.40;76.20;;;;;;4969978;28;20031;-87
2021/10/28 06:21:19;;;;;;;4.18;3.97;;;9.50;76.30;;;;;;4968918;28;20492;-86
2021/10/28 06:23:45;;;;;;;7.72;4.53;;;9.50;76.20;;;;;;4970940;28;20042;-87
2021/10/28 06:26:12;;;;;;;5.93;3.90;;;9.50;76.10;;;;;;4972894;28;20035;-83
2021/10/28 06:28:39;;;;;;;3.78;3.58;;;9.50;76.10;;;;;;4969352;28;20419;-82
2021/10/28 06:31:05;;;;;;;3.72;3.53;;;9.40;76.10;;;;;;4979858;28;20050;-84
2021/10/28 06:33:34;;;;;;;4.05;3.85;;;9.40;76.20;;;;;;4971592;28;20055;-85
2021/10/28 06:36:03;;;;;;;5.15;4.38;;;9.40;76.30;;;;;;4971066;28;20431;-80
2021/10/28 06:38:32;;;;;;;3.83;3.63;;;9.40;76.30;;;;;;4969614;28;20070;-87
2021/10/28 06:41:01;;;;;;;4.38;4.03;;;9.40;76.30;;;;;;4971365;28;20049;-84
2021/10/28 06:43:28;;;;;;;3.65;3.45;;;9.40;76.20;;;;;;4958263;28;20050;-86
2021/10/28 06:45:55;;;;;;;3.92;3.72;;;9.40;76.20;;;;;;4975955;28;20035;-83
2021/10/28 06:48:21;;;;;;;3.53;3.40;;;9.40;76.30;;;;;;4970581;28;20051;-85
2021/10/28 06:50:51;;;;;;;3.97;3.78;;;9.40;76.40;;;;;;4969641;28;21702;-84
2021/10/28 06:56:01;;;;;;;3.80;3.60;;;9.40;76.30;;;;;;4968576;28;20289;-82
2021/10/28 07:04:10;;;;;;;4.13;3.92;;;9.40;76.30;;;;;;4964111;28;20034;-84
2021/10/28 07:06:39;;;;;;;4.80;4.50;;;9.40;76.40;;;;;;4967223;28;20058;-83
2021/10/28 07:09:31;;;;;;;4.60;4.40;;;9.40;76.40;;;;;;4963569;28;20142;-85
2021/10/28 07:12:07;;;;;;;5.40;5.10;;;9.40;76.30;;;;;;4940678;28;20046;-84
2021/10/28 07:14:34;;;;;;;5.38;5.07;;;9.40;76.20;;;;;;4954121;28;20500;-87
2021/10/28 07:22:21;;;;;;;3.85;3.65;;;9.50;76.30;;;;;;4963151;28;20399;-92
2021/10/28 07:27:36;;;;;;;5.35;4.93;;;9.50;76.40;;;;;;4966876;28;20047;-88
2021/10/28 07:57:56;;;;;;;5.22;4.93;;;12.80;69.70;;;;;;4942022;28;20159;-91
2021/10/28 08:13:52;;;;;;;5.40;5.20;;;14.40;67.50;;;;;;4970146;28;20030;-86
2021/10/28 08:18:56;;;;;;;5.30;5.00;;;14.80;67.30;;;;;;4974660;28;20035;-85
2021/10/28 08:21:34;;;;;;;4.45;4.25;;;14.90;67.40;;;;;;4970386;28;20046;-89
2021/10/28 08:29:25;;;;;;;4.90;4.70;;;15.60;66.90;;;;;;4974734;28;20042;-88
2021/10/28 08:31:56;;;;;;;5.15;4.95;;;15.80;66.70;;;;;;4950967;28;20400;-88
2021/10/28 08:34:26;;;;;;;;;;;16.00;66.50;;;;;;4950479;28;20043;-87
2021/10/28 08:37:05;;;;;;;4.70;4.45;;;16.00;66.40;;;;;;4952033;28;19910;-84
2021/10/28 08:39:31;;;;;;;5.57;5.05;;;15.80;66.60;;;;;;4961668;28;20031;-85
2021/10/28 08:41:59;;;;;;;4.90;4.70;;;15.50;67.20;;;;;;4970670;28;20046;-83
2021/10/28 08:44:26;;;;;;;5.30;5.03;;;15.30;68.00;;;;;;4956944;28;20050;-91
2021/10/28 08:46:53;;;;;;;14.45;4.95;;;15.10;68.70;;;;;;4955066;28;20044;-83
2021/10/28 08:49:29;;;;;;;5.07;4.80;;;15.10;68.90;;;;;;4963460;28;20496;-86
2021/10/28 09:00:08;;;;;;;5.07;4.88;;;14.70;69.90;;;;;;4973130;28;20046;-82
2021/10/28 09:24:43;;;;;;;4.43;4.22;;;14.60;71.90;;;;;;4972653;28;20038;-81
2021/10/28 09:29:52;;;;;;;4.35;4.15;;;14.60;71.90;;;;;;4972757;28;20435;-85
2021/10/28 09:46:18;;;;;;;4.22;4.03;;;15.20;71.10;;;;;;4972156;28;20033;-80
2021/10/28 09:49:51;;;;;;;4.35;4.15;;;15.20;71.30;;;;;;4969511;28;20034;-85
2021/10/28 09:54:29;;;;;;;3.97;3.78;;;15.40;71.30;;;;;;4972142;28;20041;-84
2021/10/28 09:59:41;;;;;;;4.30;4.10;;;15.60;71.10;;;;;;4972854;28;20053;-81
2021/10/28 10:02:18;;;;;;;4.75;4.50;;;15.60;71.10;;;;;;4969338;28;20027;-85
2021/10/28 10:04:45;;;;;;;4.47;4.28;;;15.70;71.20;;;;;;4964738;28;20479;-86
2021/10/28 10:07:12;;;;;;;4.95;4.63;;;15.70;71.10;;;;;;4954268;28;20054;-87
2021/10/28 10:09:39;;;;;;;5.90;4.53;;;15.80;71.10;;;;;;4953992;28;20049;-86
2021/10/28 10:12:06;;;;;;;4.60;4.40;;;15.90;71.00;;;;;;4970390;28;20047;-86
2021/10/28 10:14:36;;;;;;;4.40;4.20;;;16.00;71.00;;;;;;4969848;28;20030;-87
2021/10/28 10:17:03;;;;;;;4.40;4.20;;;16.10;71.00;;;;;;4965416;28;20047;-86
2021/10/28 10:19:36;;;;;;;4.45;4.15;;;16.10;71.00;;;;;;4949540;28;20054;-89
2021/10/28 11:28:15;;;;;;;5.40;5.10;;;17.20;69.90;;;;;;4865914;29;20052;-78
2021/10/28 12:45:54;;;;;;;5.70;5.40;;;18.20;68.20;;;;;;4894462;29;20043;-79
2021/10/28 12:54:09;;;;;;;5.95;5.65;;;18.30;68.10;;;;;;4884482;29;20036;-79
2021/10/28 13:51:45;;;;;;;7.10;6.80;;;18.60;66.90;;;;;;4896246;29;20059;-84
2021/10/28 14:24:03;;;;;;;7.35;7.05;;;18.60;66.00;;;;;;4955135;28;20043;-81
2021/10/28 15:35:01;;;;;;;7.10;6.80;;;18.60;65.20;;;;;;4970166;28;20058;-86
2021/10/28 15:37:40;;;;;;;8.02;7.63;;;18.60;64.80;;;;;;4970871;28;20039;-87
2021/10/28 15:40:13;;;;;;;7.75;7.30;;;18.60;64.90;;;;;;4969758;28;20031;-88
2021/10/28 16:22:56;;;;;;;6.75;6.45;;;18.00;65.50;;;;;;4974106;28;20046;-85
2021/10/28 16:25:22;;;;;;;6.85;6.55;;;18.00;65.50;;;;;;4952548;28;20039;-86
2021/10/28 16:27:48;;;;;;;6.57;6.28;;;17.90;65.60;;;;;;4948684;28;20045;-87
2021/10/28 16:30:14;;;;;;;6.43;6.03;;;17.90;65.60;;;;;;4968438;28;20043;-88
2021/10/28 16:32:40;;;;;;;6.60;6.30;;;17.80;65.60;;;;;;4970762;28;20046;-86
2021/10/28 16:35:07;;;;;;;6.70;6.40;;;17.80;65.70;;;;;;4969233;28;20058;-85
2021/10/28 16:37:34;;;;;;;7.13;6.72;;;17.80;65.80;;;;;;4971421;28;20027;-88
2021/10/28 16:40:01;;;;;;;6.95;6.63;;;17.70;65.80;;;;;;4972461;28;20387;-90
2021/10/28 16:42:27;;;;;;;6.82;6.53;;;17.70;65.80;;;;;;4970826;28;20023;-85
2021/10/28 16:44:53;;;;;;;6.10;5.80;;;17.70;65.90;;;;;;4970348;28;20054;-85
2021/10/28 16:47:19;;;;;;;6.85;6.32;;;17.60;65.90;;;;;;4978173;28;20039;-86
2021/10/28 16:49:45;;;;;;;6.28;5.97;;;17.60;66.00;;;;;;4972772;28;20047;-87
2021/10/28 16:52:11;;;;;;;5.80;5.50;;;17.50;66.00;;;;;;4969388;28;20035;-86
2021/10/28 16:54:38;;;;;;;6.65;6.03;;;17.50;66.10;;;;;;4979605;28;20034;-90
2021/10/28 16:57:04;;;;;;;6.10;5.80;;;17.40;66.10;;;;;;4976945;28;20050;-90
2021/10/28 16:59:30;;;;;;;7.53;6.97;;;17.40;66.20;;;;;;4972440;28;20513;-85
2021/10/28 17:01:56;;;;;;;7.53;6.80;;;17.40;66.30;;;;;;4986389;28;20035;-86
2021/10/28 17:04:22;;;;;;;6.22;5.93;;;17.30;66.30;;;;;;4972110;28;20038;-89
2021/10/28 17:06:51;;;;;;;6.93;6.53;;;17.30;66.40;;;;;;4966701;28;20476;-89
2021/10/28 17:09:17;;;;;;;9.95;7.63;;;17.20;66.40;;;;;;4968161;28;20039;-86
2021/10/28 17:11:43;;;;;;;6.40;6.00;;;17.20;66.50;;;;;;4972108;28;20480;-88
2021/10/28 17:14:09;;;;;;;7.07;6.68;;;17.20;66.60;;;;;;4987587;28;20047;-87
2021/10/28 17:16:36;;;;;;;10.18;7.80;;;17.10;66.60;;;;;;4974249;28;20046;-87
2021/10/28 17:19:02;;;;;;;8.40;7.80;;;17.10;66.70;;;;;;4968659;28;20043;-87
2021/10/28 17:21:28;;;;;;;6.43;6.13;;;17.00;66.70;;;;;;4969758;28;20033;-82
2021/10/28 17:24:06;;;;;;;6.10;5.80;;;16.90;66.80;;;;;;4970423;28;20034;-85
2021/10/28 17:26:33;;;;;;;6.25;5.95;;;16.90;66.80;;;;;;4969361;28;20047;-85
2021/10/28 17:29:01;;;;;;;5.63;5.32;;;16.90;66.90;;;;;;4970719;28;20072;-89
2021/10/28 17:31:35;;;;;;;6.15;5.75;;;16.80;66.90;;;;;;4969785;28;20385;-92
2021/10/28 17:34:03;;;;;;;5.93;5.63;;;16.80;67.00;;;;;;4966546;28;20542;-83
2021/10/28 17:36:29;;;;;;;5.75;5.45;;;16.80;67.00;;;;;;4973233;28;20045;-80
2021/10/28 17:38:55;;;;;;;5.90;5.60;;;16.70;67.00;;;;;;4971833;28;20034;-82
2021/10/28 17:41:22;;;;;;;5.90;5.60;;;16.70;67.00;;;;;;4968176;28;20392;-80
2021/10/28 17:43:51;;;;;;;6.55;6.25;;;16.70;67.10;;;;;;4974808;28;20027;-83
2021/10/28 17:46:18;;;;;;;5.78;5.47;;;16.60;67.10;;;;;;4969474;28;20043;-82
2021/10/28 17:48:44;;;;;;;6.25;5.85;;;16.60;67.10;;;;;;4969589;28;20051;-82
2021/10/28 17:51:11;;;;;;;6.03;5.70;;;16.60;67.10;;;;;;4969123;28;20418;-82
2021/10/28 17:53:37;;;;;;;6.50;6.10;;;16.50;67.10;;;;;;4970976;28;20376;-82
2021/10/28 17:56:04;;;;;;;5.95;5.65;;;16.50;67.20;;;;;;4983603;28;20023;-82
2021/10/28 17:58:30;;;;;;;6.20;5.90;;;16.50;67.20;;;;;;4954788;28;20031;-86
2021/10/28 18:00:56;;;;;;;6.00;5.70;;;16.40;67.30;;;;;;4969709;28;20050;-85
2021/10/28 18:03:23;;;;;;;6.00;5.70;;;16.40;67.30;;;;;;4969026;28;20514;-86
2021/10/28 18:05:51;;;;;;;6.47;5.85;;;16.40;67.40;;;;;;4973814;28;20035;-86
2021/10/28 18:08:18;;;;;;;6.10;5.80;;;16.30;67.40;;;;;;4972578;28;20027;-85
2021/10/28 18:10:44;;;;;;;6.63;6.13;;;16.30;67.50;;;;;;4969452;28;20035;-82
2021/10/28 18:13:12;;;;;;;6.55;6.15;;;16.30;67.50;;;;;;4969029;28;20042;-84
2021/10/28 18:15:41;;;;;;;6.22;5.82;;;16.30;67.40;;;;;;4969794;28;20499;-83
2021/10/28 18:18:08;;;;;;;6.30;5.93;;;16.20;67.40;;;;;;4968567;28;20027;-81
2021/10/28 18:20:37;;;;;;;6.18;5.88;;;16.20;67.40;;;;;;4967141;28;20034;-82
2021/10/28 18:23:04;;;;;;;6.55;6.15;;;16.10;67.50;;;;;;4968092;28;20035;-82
2021/10/28 18:25:30;;;;;;;6.10;5.70;;;16.10;67.50;;;;;;4969549;28;20030;-81
2021/10/28 18:27:56;;;;;;;7.57;6.97;;;16.00;67.60;;;;;;4969478;28;20067;-79
2021/10/28 18:30:24;;;;;;;5.95;5.65;;;16.00;67.70;;;;;;4967954;28;20046;-82
2021/10/28 18:32:50;;;;;;;5.82;5.47;;;15.90;67.80;;;;;;4969429;28;20476;-82
2021/10/28 18:35:16;;;;;;;7.00;6.38;;;15.90;67.90;;;;;;4971538;28;20039;-83
2021/10/28 18:37:42;;;;;;;6.53;6.13;;;15.90;68.00;;;;;;4969061;28;20023;-82
2021/10/28 18:40:10;;;;;;;6.32;6.03;;;15.80;68.00;;;;;;4968434;28;20033;-82
2021/10/28 18:42:36;;;;;;;6.10;5.80;;;15.70;68.10;;;;;;4968832;28;20023;-82
2021/10/28 18:45:03;;;;;;;6.10;5.80;;;15.70;68.20;;;;;;4967610;28;20027;-80
2021/10/28 18:47:30;;;;;;;5.97;5.68;;;15.60;68.20;;;;;;4970690;28;20030;-80
2021/10/28 18:49:56;;;;;;;6.40;5.88;;;15.60;68.30;;;;;;4970920;28;20039;-82
2021/10/28 18:52:22;;;;;;;6.32;5.82;;;15.60;68.40;;;;;;4970507;28;20026;-81
2021/10/28 18:54:51;;;;;;;5.45;5.18;;;15.60;68.40;;;;;;4969968;28;20037;-81
2021/10/28 18:57:17;;;;;;;5.40;5.07;;;15.50;68.50;;;;;;4969075;28;20034;-82
2021/10/28 18:59:44;;;;;;;5.32;4.85;;;15.50;68.50;;;;;;4969621;28;20498;-82
2021/10/28 19:02:11;;;;;;;5.30;5.00;;;15.40;68.50;;;;;;4970614;28;20062;-82
2021/10/28 19:04:37;;;;;;;5.55;5.20;;;15.40;68.60;;;;;;4967656;28;20042;-82
2021/10/28 19:07:04;;;;;;;4.60;4.40;;;15.40;68.70;;;;;;4971142;28;20509;-82
2021/10/28 19:09:30;;;;;;;4.80;4.60;;;15.30;68.70;;;;;;4984083;28;20514;-82
2021/10/28 19:11:57;;;;;;;4.65;4.45;;;15.30;68.70;;;;;;4973460;28;20026;-82
2021/10/28 19:14:24;;;;;;;4.53;4.32;;;15.20;68.70;;;;;;4977480;28;20050;-86
2021/10/28 19:16:50;;;;;;;5.82;5.32;;;15.20;69.70;;;;;;4971210;28;20038;-88
2021/10/28 19:19:16;;;;;;;4.50;4.30;;;15.20;68.90;;;;;;4979474;28;20027;-88
2021/10/28 19:21:42;;;;;;;5.13;4.82;;;15.10;68.90;;;;;;4976981;28;20038;-89
2021/10/28 19:24:09;;;;;;;5.13;4.75;;;15.10;68.90;;;;;;4976857;28;20034;-87
2021/10/28 19:26:35;;;;;;;5.50;5.20;;;15.10;69.00;;;;;;4960265;28;20047;-87
2021/10/28 19:29:04;;;;;;;5.35;5.15;;;15.10;69.10;;;;;;4979299;28;20051;-85
2021/10/28 19:31:33;;;;;;;5.60;5.30;;;15.00;69.10;;;;;;4974888;28;20412;-85
2021/10/28 19:34:02;;;;;;;5.75;5.45;;;15.00;69.10;;;;;;4980885;28;20411;-86
2021/10/28 19:36:33;;;;;;;6.10;5.63;;;15.00;69.10;;;;;;4974353;28;20031;-88
2021/10/28 19:47:14;;;;;;;5.28;4.97;;;14.90;69.20;;;;;;4979775;28;20046;-88
2021/10/28 19:49:44;;;;;;;5.68;5.18;;;14.90;69.20;;;;;;4967169;28;20406;-88
2021/10/28 19:52:12;;;;;;;5.70;5.40;;;14.80;69.20;;;;;;4983644;28;20037;-88
2021/10/28 19:54:40;;;;;;;5.30;5.00;;;14.80;69.30;;;;;;4987723;28;20034;-89
2021/10/28 19:57:12;;;;;;;5.25;5.05;;;14.80;69.30;;;;;;4975049;28;20038;-86
2021/10/28 19:59:44;;;;;;;10.45;5.68;;;14.80;69.30;;;;;;4958412;28;20058;-83
2021/10/28 20:02:16;;;;;;;5.10;4.80;;;14.70;69.30;;;;;;4978637;28;20039;-83
2021/10/28 20:07:56;;;;;;;5.25;5.05;;;14.70;69.30;;;;;;4980092;28;20392;-84
2021/10/28 20:21:10;;;;;;;5.47;5.18;;;14.70;69.50;;;;;;4940531;29;20045;-83
2021/10/28 20:23:37;;;;;;;5.05;4.85;;;14.70;69.50;;;;;;4958059;28;20054;-85
2021/10/28 20:26:03;;;;;;;5.18;4.88;;;14.60;69.50;;;;;;4937187;29;20051;-84
2021/10/28 20:28:37;;;;;;;5.35;5.05;;;14.60;69.50;;;;;;4930930;28;20035;-84
2021/10/28 20:31:04;;;;;;;5.30;5.00;;;14.60;69.50;;;;;;4947674;28;20042;-84
2021/10/28 20:33:32;;;;;;;5.65;5.35;;;14.60;69.60;;;;;;4959695;28;20035;-85
2021/10/28 20:38:31;;;;;;;5.78;5.38;;;14.60;69.70;;;;;;4937077;28;20031;-85
2021/10/28 20:40:57;;;;;;;5.93;5.20;;;14.60;69.70;;;;;;4957319;28;20047;-85
2021/10/28 20:43:23;;;;;;;5.88;5.38;;;14.60;69.80;;;;;;4943159;29;20039;-84
2021/10/28 20:45:49;;;;;;;5.20;4.90;;;14.50;70.50;;;;;;4946871;29;20039;-83
2021/10/28 20:48:15;;;;;;;5.50;5.20;;;14.50;69.70;;;;;;4946855;29;20038;-84
2021/10/28 20:50:41;;;;;;;5.88;5.35;;;14.50;69.80;;;;;;4955048;29;20042;-85
2021/10/28 20:53:07;;;;;;;5.32;5.03;;;14.50;70.60;;;;;;4957901;28;20050;-86
2021/10/28 20:55:34;;;;;;;8.75;5.20;;;14.50;69.90;;;;;;4975731;28;20038;-85
2021/10/28 20:58:00;;;;;;;5.18;4.88;;;14.50;69.90;;;;;;4976131;28;20026;-86
2021/10/28 21:00:26;;;;;;;5.78;5.38;;;14.40;70.00;;;;;;4975413;28;20026;-83
2021/10/28 21:02:54;;;;;;;5.30;4.90;;;14.30;70.00;;;;;;4972618;28;20498;-85
2021/10/28 21:05:22;;;;;;;5.25;5.00;;;14.30;70.10;;;;;;4989686;28;20467;-84
2021/10/28 21:07:49;;;;;;;5.60;5.30;;;14.30;70.10;;;;;;4984209;28;20498;-84
2021/10/28 21:10:17;;;;;;;5.18;4.97;;;14.30;70.20;;;;;;4964140;28;20046;-84
2021/10/28 21:12:43;;;;;;;5.65;5.35;;;14.20;70.20;;;;;;4975277;28;20500;-83
2021/10/28 21:15:09;;;;;;;5.35;5.05;;;14.20;70.30;;;;;;4974225;28;20041;-84
2021/10/28 21:17:35;;;;;;;4.65;4.45;;;14.20;70.40;;;;;;4973691;28;20030;-84
2021/10/28 21:20:04;;;;;;;5.13;4.85;;;14.20;70.40;;;;;;4976433;28;20435;-84
2021/10/28 21:22:31;;;;;;;4.70;4.50;;;14.10;70.40;;;;;;4976027;28;20026;-84
2021/10/28 21:24:57;;;;;;;4.82;4.55;;;14.20;70.40;;;;;;4980014;28;20037;-85
2021/10/28 21:27:23;;;;;;;4.72;4.43;;;14.20;70.50;;;;;;4979722;28;20039;-85
2021/10/28 21:29:49;;;;;;;4.85;4.57;;;14.20;70.40;;;;;;4971452;28;20043;-84
2021/10/28 21:32:15;;;;;;;5.50;5.10;;;14.20;70.50;;;;;;4975695;28;20484;-85
2021/10/28 21:34:42;;;;;;;5.15;4.75;;;14.20;70.40;;;;;;4974811;28;20042;-85
2021/10/28 21:37:10;;;;;;;4.38;4.18;;;14.10;70.50;;;;;;4979786;28;20023;-85
2021/10/28 21:39:36;;;;;;;4.80;4.57;;;14.10;70.50;;;;;;4983178;28;20046;-85
2021/10/28 21:42:03;;;;;;;5.03;4.63;;;14.10;70.60;;;;;;4972242;28;20030;-85
2021/10/28 21:44:30;;;;;;;5.18;4.88;;;14.10;70.60;;;;;;4974141;28;20027;-84
2021/10/28 21:46:56;;;;;;;5.20;4.70;;;14.10;70.70;;;;;;4954794;28;20031;-85
2021/10/28 21:49:23;;;;;;;4.50;4.30;;;14.00;70.70;;;;;;4967441;28;20046;-84
2021/10/28 21:51:52;;;;;;;5.05;4.68;;;14.00;70.80;;;;;;4970953;28;20026;-86
2021/10/28 21:57:26;;;;;;;4.35;4.15;;;14.00;70.80;;;;;;4935619;29;20058;-83
2021/10/28 22:24:07;;;;;;;4.35;4.15;;;14.00;71.00;;;;;;4949721;28;20031;-81
2021/10/28 22:26:26;;;;;;;4.65;4.45;;;14.00;71.00;;;;;;4936376;28;20042;-84
2021/10/28 22:28:52;;;;;;;5.15;4.85;;;14.00;71.00;;;;;;4915768;29;20052;-84
2021/10/28 22:31:18;;;;;;;5.70;5.38;;;13.90;71.10;;;;;;4944802;28;20139;-83
2021/10/28 22:33:46;;;;;;;4.97;4.78;;;14.00;71.20;;;;;;4958669;28;20047;-83
2021/10/28 22:36:50;;;;;;;4.50;4.30;;;13.90;71.10;;;;;;4967601;28;20031;-85